Time;durP1;ratioP1;P1;durP2;ratioP2;P2;SDS_P1;SDS_P2;PMS_P1;PMS_P2;Temp;Humidity;BMP_temperature;BMP_pressure;BME280_temperature;BME280_humidity;BME280_pressure;Samples;Min_cycle;Max_cycle;Signal;HPM_P1;HPM_P2
2021/09/02 00:00:49;;;;;;;14.23;9.53;;;14.30;99.90;;;;;;5142890;27;20191;-46
2021/09/02 00:03:16;;;;;;;17.07;9.17;;;14.30;99.90;;;;;;5142796;27;20207;-48
2021/09/02 00:05:42;;;;;;;24.20;10.20;;;14.20;99.90;;;;;;5113329;27;20916;-48
2021/09/02 00:08:09;;;;;;;14.43;9.83;;;14.20;99.90;;;;;;5123135;27;20200;-45
2021/09/02 00:10:36;;;;;;;16.27;9.20;;;14.20;99.90;;;;;;5121402;27;20779;-50
2021/09/02 00:13:04;;;;;;;18.27;10.53;;;14.20;99.90;;;;;;5124398;27;20575;-49
2021/09/02 00:15:32;;;;;;;14.40;8.77;;;14.20;99.90;;;;;;5122140;27;20200;-47
2021/09/02 00:17:59;;;;;;;12.57;8.93;;;14.20;99.90;;;;;;5127509;27;20678;-47
2021/09/02 00:20:26;;;;;;;19.20;9.77;;;14.20;99.90;;;;;;5109793;27;20287;-49
2021/09/02 00:22:53;;;;;;;16.00;9.07;;;14.20;99.90;;;;;;5127916;27;20220;-46
2021/09/02 00:25:19;;;;;;;15.30;9.37;;;14.20;99.90;;;;;;5125478;27;20188;-45
2021/09/02 00:27:46;;;;;;;15.73;9.80;;;14.20;99.90;;;;;;5128342;27;20701;-44
2021/09/02 00:30:15;;;;;;;14.27;9.40;;;14.20;99.90;;;;;;5139931;27;20196;-48
2021/09/02 00:32:42;;;;;;;17.53;10.20;;;14.20;99.90;;;;;;5145148;27;20464;-47
2021/09/02 00:35:10;;;;;;;13.83;8.80;;;14.20;99.90;;;;;;5147264;27;20191;-43
2021/09/02 00:37:36;;;;;;;15.97;9.27;;;14.20;99.90;;;;;;5118197;27;20207;-44
2021/09/02 00:40:03;;;;;;;16.50;9.93;;;14.20;99.90;;;;;;5127332;27;20197;-49
2021/09/02 00:42:30;;;;;;;16.63;9.73;;;14.20;99.90;;;;;;5123798;27;20208;-45
2021/09/02 00:44:57;;;;;;;18.43;9.80;;;14.00;99.90;;;;;;5127903;27;20188;-48
2021/09/02 00:47:26;;;;;;;19.00;9.83;;;14.10;99.90;;;;;;5123529;27;20215;-49
2021/09/02 00:49:53;;;;;;;15.13;9.10;;;14.10;99.90;;;;;;5127291;27;20196;-50
2021/09/02 00:52:21;;;;;;;13.27;9.30;;;14.00;99.90;;;;;;5110019;27;20302;-45
2021/09/02 00:54:51;;;;;;;16.50;9.53;;;14.00;99.90;;;;;;5127188;27;20193;-43
2021/09/02 00:57:19;;;;;;;15.07;8.80;;;14.00;99.90;;;;;;5123522;27;20194;-48
2021/09/02 00:59:48;;;;;;;15.23;9.13;;;14.00;99.90;;;;;;5138424;27;20203;-45
2021/09/02 01:02:14;;;;;;;16.10;9.03;;;14.00;99.90;;;;;;5145961;27;20721;-47
2021/09/02 01:04:42;;;;;;;14.30;9.07;;;13.90;99.90;;;;;;5146304;27;20187;-46
2021/09/02 01:07:09;;;;;;;16.37;9.07;;;13.90;99.90;;;;;;5125932;27;20220;-47
2021/09/02 01:09:36;;;;;;;19.90;9.70;;;13.90;99.90;;;;;;5124005;27;20195;-45
2021/09/02 01:12:32;;;;;;;15.13;9.70;;;13.90;99.90;;;;;;5127366;27;20281;-44
2021/09/02 01:15:04;;;;;;;15.70;9.27;;;13.90;99.90;;;;;;5127206;27;20197;-44
2021/09/02 01:17:31;;;;;;;18.67;9.30;;;13.90;99.90;;;;;;5122579;27;20192;-44
2021/09/02 01:20:00;;;;;;;16.80;9.93;;;13.80;99.90;;;;;;5127233;27;20192;-45
2021/09/02 01:22:29;;;;;;;15.23;9.00;;;13.80;99.90;;;;;;5106860;27;20220;-44
2021/09/02 01:24:58;;;;;;;17.73;9.57;;;13.80;99.90;;;;;;5126776;27;20196;-43
2021/09/02 01:27:28;;;;;;;16.20;9.03;;;13.90;99.90;;;;;;5121406;27;20223;-43
2021/09/02 01:29:56;;;;;;;17.97;10.53;;;13.80;99.90;;;;;;5138964;27;20657;-44
2021/09/02 01:32:24;;;;;;;14.07;9.77;;;13.80;99.90;;;;;;5143478;27;20196;-49
2021/09/02 01:34:54;;;;;;;17.10;9.30;;;13.80;99.90;;;;;;5147302;27;20188;-43
2021/09/02 01:37:21;;;;;;;17.33;9.97;;;13.80;99.90;;;;;;5130037;27;20192;-46
2021/09/02 01:39:49;;;;;;;21.13;10.07;;;13.70;99.90;;;;;;5124324;27;20205;-45
2021/09/02 01:42:17;;;;;;;16.13;10.10;;;13.60;99.90;;;;;;5124296;27;20682;-46
2021/09/02 01:44:44;;;;;;;20.13;10.90;;;13.60;99.90;;;;;;5125405;27;20199;-47
2021/09/02 01:47:25;;;;;;;17.57;9.93;;;13.70;99.90;;;;;;5125140;27;20223;-45
2021/09/02 01:49:52;;;;;;;17.27;9.87;;;13.70;99.90;;;;;;5126384;27;20666;-45
2021/09/02 01:52:20;;;;;;;13.63;9.37;;;13.70;99.90;;;;;;5123751;27;20534;-48
2021/09/02 01:54:47;;;;;;;18.27;10.03;;;13.70;99.90;;;;;;5111315;27;20213;-45
2021/09/02 01:57:15;;;;;;;13.60;9.73;;;13.70;99.90;;;;;;5122477;27;20192;-46
2021/09/02 01:59:43;;;;;;;17.73;10.27;;;13.80;99.90;;;;;;5136484;27;20263;-45
2021/09/02 02:02:10;;;;;;;16.83;9.60;;;13.80;99.90;;;;;;5145731;27;20196;-45
2021/09/02 02:04:36;;;;;;;17.40;9.67;;;13.80;99.90;;;;;;5143939;27;20802;-45
2021/09/02 02:07:03;;;;;;;14.07;10.00;;;13.80;99.90;;;;;;5146977;27;20204;-45
2021/09/02 02:09:30;;;;;;;17.03;10.07;;;13.80;99.90;;;;;;5123733;27;20219;-44
2021/09/02 02:11:57;;;;;;;18.10;9.67;;;13.80;99.90;;;;;;5124974;27;20203;-45
2021/09/02 02:14:23;;;;;;;17.70;10.40;;;13.80;99.90;;;;;;5122220;27;20217;-45
2021/09/02 02:16:51;;;;;;;19.97;10.27;;;13.70;99.90;;;;;;5125960;27;20530;-42
2021/09/02 02:19:18;;;;;;;14.93;10.43;;;13.70;99.90;;;;;;5122176;27;20328;-47
2021/09/02 02:21:45;;;;;;;17.07;10.37;;;13.70;99.90;;;;;;5124742;27;20218;-44
2021/09/02 02:24:12;;;;;;;16.90;10.07;;;13.70;99.90;;;;;;5124630;27;20224;-48
2021/09/02 02:26:38;;;;;;;17.33;9.20;;;13.70;99.90;;;;;;5103499;27;20206;-44
2021/09/02 02:29:05;;;;;;;14.30;9.60;;;13.70;99.90;;;;;;5129416;27;20195;-49
2021/09/02 02:31:32;;;;;;;16.00;9.37;;;13.70;99.90;;;;;;5142238;27;20180;-44
2021/09/02 02:34:00;;;;;;;16.60;9.93;;;13.60;99.90;;;;;;5146285;27;20216;-43
2021/09/02 02:36:26;;;;;;;15.83;10.20;;;13.60;99.90;;;;;;5141739;27;21005;-43
2021/09/02 02:38:53;;;;;;;14.20;9.73;;;13.70;99.90;;;;;;5145941;27;20679;-45
2021/09/02 02:41:20;;;;;;;16.60;10.10;;;13.70;99.90;;;;;;5117499;27;20692;-47
2021/09/02 02:43:47;;;;;;;17.27;10.07;;;13.70;99.90;;;;;;5124589;27;20216;-45
2021/09/02 02:46:13;;;;;;;18.03;10.50;;;13.70;99.90;;;;;;5123672;27;20181;-47
2021/09/02 02:48:40;;;;;;;18.33;9.60;;;13.70;99.90;;;;;;5123116;27;20208;-46
2021/09/02 02:51:08;;;;;;;17.37;9.60;;;13.70;99.90;;;;;;5124856;27;20697;-50
2021/09/02 02:53:34;;;;;;;16.57;10.03;;;13.70;99.90;;;;;;5122302;27;20204;-44
2021/09/02 02:56:01;;;;;;;13.07;9.87;;;13.70;99.90;;;;;;5123402;27;20193;-43
2021/09/02 02:58:28;;;;;;;14.47;9.17;;;13.70;99.90;;;;;;5106053;27;20193;-46
2021/09/02 03:00:54;;;;;;;15.73;9.77;;;13.70;99.90;;;;;;5124681;27;20208;-49
2021/09/02 03:03:21;;;;;;;18.13;8.80;;;13.70;99.90;;;;;;5121510;27;20712;-45
2021/09/02 03:05:48;;;;;;;14.60;9.43;;;13.80;99.90;;;;;;5124783;27;20199;-45
2021/09/02 03:08:15;;;;;;;18.13;9.67;;;13.80;99.90;;;;;;5122914;27;20216;-47
2021/09/02 03:10:42;;;;;;;15.30;9.10;;;13.80;99.90;;;;;;5123320;27;20908;-44
2021/09/02 03:13:09;;;;;;;15.67;9.63;;;13.80;99.90;;;;;;5109487;27;20228;-47
2021/09/02 03:15:35;;;;;;;15.20;9.00;;;13.80;99.90;;;;;;5121671;27;20193;-44
2021/09/02 03:18:02;;;;;;;15.30;9.63;;;13.80;99.90;;;;;;5123799;27;20193;-46
2021/09/02 03:20:28;;;;;;;15.53;9.00;;;13.90;99.90;;;;;;5120667;27;20817;-46
2021/09/02 03:22:55;;;;;;;16.80;9.53;;;13.90;99.90;;;;;;5124588;27;20217;-44
2021/09/02 03:25:23;;;;;;;12.97;9.17;;;13.90;99.90;;;;;;5121492;27;20204;-46
2021/09/02 03:27:50;;;;;;;15.43;9.07;;;13.90;99.90;;;;;;5107485;27;20212;-46
2021/09/02 03:30:17;;;;;;;16.33;9.00;;;14.00;99.90;;;;;;5122039;27;20196;-49
2021/09/02 03:32:43;;;;;;;13.77;9.17;;;13.90;99.90;;;;;;5123050;27;20950;-47
2021/09/02 03:35:11;;;;;;;18.23;10.13;;;14.00;99.90;;;;;;5123003;27;20203;-46
2021/09/02 03:37:38;;;;;;;15.97;9.67;;;14.00;99.90;;;;;;5121873;27;20176;-47
2021/09/02 03:40:06;;;;;;;14.23;8.60;;;14.00;99.90;;;;;;5124314;27;20199;-44
2021/09/02 03:42:34;;;;;;;15.73;9.33;;;14.00;99.90;;;;;;5107671;27;20212;-45
2021/09/02 03:45:01;;;;;;;13.67;9.57;;;14.00;99.90;;;;;;5124113;27;20666;-44
2021/09/02 03:47:27;;;;;;;18.83;9.80;;;14.00;99.90;;;;;;5120246;27;20197;-45
2021/09/02 03:49:54;;;;;;;14.47;9.50;;;14.00;99.90;;;;;;5123641;27;20208;-44
2021/09/02 03:52:20;;;;;;;17.10;8.87;;;14.00;99.90;;;;;;5121392;27;20189;-46
2021/09/02 03:54:47;;;;;;;15.10;9.40;;;14.00;99.90;;;;;;5123800;27;20189;-49
2021/09/02 03:57:13;;;;;;;16.30;9.43;;;14.00;99.90;;;;;;5112238;27;20188;-45
2021/09/02 03:59:41;;;;;;;15.03;9.80;;;14.10;99.90;;;;;;5117364;27;20199;-45
2021/09/02 04:02:08;;;;;;;18.50;9.67;;;14.00;99.90;;;;;;5123366;27;20196;-46
2021/09/02 04:04:35;;;;;;;16.00;8.57;;;14.00;99.90;;;;;;5121520;27;20452;-44
2021/09/02 04:07:01;;;;;;;14.77;8.83;;;14.10;99.90;;;;;;5124036;27;20222;-46
2021/09/02 04:09:28;;;;;;;17.40;9.30;;;14.10;99.90;;;;;;5120007;27;20207;-50
2021/09/02 04:11:54;;;;;;;15.97;8.40;;;14.10;99.90;;;;;;5123938;27;20200;-47
2021/09/02 04:14:21;;;;;;;16.57;9.17;;;14.10;99.90;;;;;;5108063;27;20212;-48
2021/09/02 04:16:49;;;;;;;15.50;8.90;;;14.20;99.90;;;;;;5123533;27;20185;-49
2021/09/02 04:19:15;;;;;;;15.10;9.63;;;14.10;99.90;;;;;;5121118;27;20184;-45
2021/09/02 04:21:42;;;;;;;16.57;9.20;;;14.10;99.90;;;;;;5122311;27;20192;-45
2021/09/02 04:24:09;;;;;;;17.80;9.73;;;14.10;99.90;;;;;;5123220;27;20215;-48
2021/09/02 04:26:35;;;;;;;17.03;8.87;;;14.10;99.90;;;;;;5114043;27;20198;-43
2021/09/02 04:29:02;;;;;;;17.57;9.07;;;14.10;99.90;;;;;;5119401;27;20208;-44
2021/09/02 04:31:28;;;;;;;18.80;9.47;;;14.20;99.90;;;;;;5119960;27;20836;-46
2021/09/02 04:33:56;;;;;;;17.63;9.37;;;14.10;99.90;;;;;;5123685;27;20204;-44
2021/09/02 04:36:23;;;;;;;18.63;9.43;;;14.10;99.90;;;;;;5118592;27;20204;-48
2021/09/02 04:38:49;;;;;;;12.90;8.73;;;14.20;99.90;;;;;;5123207;27;20196;-44
2021/09/02 04:41:16;;;;;;;18.83;9.23;;;14.10;99.90;;;;;;5114177;27;20666;-46
2021/09/02 04:43:43;;;;;;;15.40;9.23;;;14.20;99.90;;;;;;5113664;28;20228;-46
2021/09/02 04:46:11;;;;;;;18.53;9.07;;;14.20;99.90;;;;;;5106252;27;20693;-46
2021/09/02 04:48:38;;;;;;;17.60;8.97;;;14.20;99.90;;;;;;5111703;27;20219;-47
2021/09/02 04:51:06;;;;;;;18.07;8.90;;;14.20;99.90;;;;;;5123446;27;20197;-49
2021/09/02 04:53:33;;;;;;;17.93;9.00;;;14.20;99.90;;;;;;5109242;27;20775;-45
2021/09/02 04:55:59;;;;;;;16.70;9.10;;;14.20;99.90;;;;;;5116796;28;20680;-44
2021/09/02 04:58:26;;;;;;;18.63;9.17;;;14.20;99.90;;;;;;5113997;28;20818;-46
2021/09/02 05:00:52;;;;;;;18.27;8.97;;;14.20;99.90;;;;;;5106039;27;20219;-46
2021/09/02 05:03:19;;;;;;;14.87;8.50;;;14.20;99.90;;;;;;5117289;27;20737;-49
2021/09/02 05:05:46;;;;;;;14.07;8.90;;;14.30;99.90;;;;;;5126633;27;20189;-46
2021/09/02 05:08:14;;;;;;;15.60;8.97;;;14.30;99.90;;;;;;5124917;27;20704;-48
2021/09/02 05:10:40;;;;;;;17.00;9.20;;;14.30;99.90;;;;;;5125682;27;20181;-49
2021/09/02 05:13:07;;;;;;;13.53;8.83;;;14.30;99.90;;;;;;5113344;27;20224;-48
2021/09/02 05:15:33;;;;;;;16.80;8.90;;;14.20;99.90;;;;;;5096291;27;20200;-47
2021/09/02 05:18:00;;;;;;;15.63;8.57;;;14.30;99.90;;;;;;5118033;27;20199;-49
2021/09/02 05:20:27;;;;;;;15.90;9.00;;;14.30;99.90;;;;;;5116779;27;20192;-46
2021/09/02 05:22:53;;;;;;;22.13;10.00;;;14.30;99.90;;;;;;5117347;27;20243;-47
2021/09/02 05:25:21;;;;;;;17.40;8.57;;;14.30;99.90;;;;;;5119770;27;20857;-46
2021/09/02 05:27:48;;;;;;;17.50;9.13;;;14.30;99.90;;;;;;5115439;27;20213;-45
2021/09/02 05:30:15;;;;;;;17.70;8.17;;;14.30;99.90;;;;;;5109398;27;20192;-47
2021/09/02 05:32:42;;;;;;;17.10;8.27;;;14.40;99.90;;;;;;5115736;27;20209;-48
2021/09/02 05:35:10;;;;;;;14.40;7.83;;;14.40;99.90;;;;;;5115973;27;20253;-47
2021/09/02 05:37:37;;;;;;;14.67;8.60;;;14.40;99.90;;;;;;5115972;27;20875;-46
2021/09/02 05:40:05;;;;;;;19.80;8.23;;;14.40;99.90;;;;;;5118999;27;20657;-49
2021/09/02 05:42:33;;;;;;;14.83;8.43;;;14.40;99.90;;;;;;5123728;27;20299;-46
2021/09/02 05:44:59;;;;;;;20.70;8.57;;;14.40;99.90;;;;;;5124522;27;20199;-47
2021/09/02 05:47:26;;;;;;;14.33;8.70;;;14.50;99.90;;;;;;5102531;27;20868;-47
2021/09/02 05:49:53;;;;;;;14.40;7.90;;;14.50;99.90;;;;;;5114437;27;20193;-46
2021/09/02 05:52:19;;;;;;;16.33;8.73;;;14.50;99.90;;;;;;5112589;27;20201;-45
2021/09/02 05:54:48;;;;;;;19.80;8.50;;;14.50;99.90;;;;;;5120707;27;20197;-47
2021/09/02 05:57:14;;;;;;;15.43;8.80;;;14.50;99.90;;;;;;5114255;27;20204;-48
2021/09/02 05:59:42;;;;;;;22.67;9.03;;;14.50;99.90;;;;;;5129984;27;20189;-47
2021/09/02 06:02:09;;;;;;;13.70;8.93;;;14.60;99.90;;;;;;5103511;27;20678;-48
2021/09/02 06:04:35;;;;;;;18.50;9.50;;;14.60;99.90;;;;;;5109658;27;20195;-46
2021/09/02 06:07:02;;;;;;;15.13;9.23;;;14.60;99.90;;;;;;5118800;27;20196;-45
2021/09/02 06:09:28;;;;;;;11.50;8.30;;;14.60;99.90;;;;;;5108017;27;20217;-46
2021/09/02 06:11:55;;;;;;;16.97;8.27;;;14.60;99.90;;;;;;5111406;27;20202;-48
2021/09/02 06:14:22;;;;;;;18.37;8.27;;;14.60;99.90;;;;;;5119687;27;20212;-48
2021/09/02 06:16:50;;;;;;;19.13;10.00;;;14.70;99.90;;;;;;5118380;27;20200;-45
2021/09/02 06:19:16;;;;;;;15.93;8.63;;;14.70;99.90;;;;;;5094052;27;20207;-48
2021/09/02 06:21:43;;;;;;;16.97;8.77;;;14.70;99.90;;;;;;5116524;27;20224;-47
2021/09/02 06:24:09;;;;;;;19.90;10.00;;;14.70;99.90;;;;;;5103514;27;20223;-45
2021/09/02 06:26:36;;;;;;;16.70;9.63;;;14.70;99.90;;;;;;5110167;27;20946;-45
2021/09/02 06:29:03;;;;;;;19.87;9.57;;;14.80;99.90;;;;;;5115097;27;20228;-46
2021/09/02 06:31:30;;;;;;;22.87;9.80;;;14.80;99.90;;;;;;5105126;27;20204;-45
2021/09/02 06:33:58;;;;;;;19.87;11.47;;;14.80;99.90;;;;;;5102731;27;20243;-46
2021/09/02 06:36:24;;;;;;;20.20;10.67;;;14.90;99.90;;;;;;5105322;27;20203;-45
2021/09/02 06:38:51;;;;;;;19.77;10.33;;;14.90;99.90;;;;;;5101973;27;20197;-45
2021/09/02 06:41:17;;;;;;;19.40;11.50;;;15.00;99.90;;;;;;5117707;27;20205;-46
2021/09/02 06:43:44;;;;;;;22.07;10.90;;;15.00;99.90;;;;;;5119932;27;20684;-46
2021/09/02 06:46:11;;;;;;;22.90;10.80;;;15.10;99.90;;;;;;5123244;27;20194;-46
2021/09/02 06:48:37;;;;;;;17.53;9.83;;;15.10;99.90;;;;;;5122261;27;20210;-48
2021/09/02 06:51:05;;;;;;;15.87;9.30;;;15.10;99.90;;;;;;5098176;27;20192;-45
2021/09/02 06:53:32;;;;;;;18.50;10.03;;;15.10;99.90;;;;;;5119637;27;20558;-46
2021/09/02 06:55:59;;;;;;;18.17;9.03;;;15.20;99.90;;;;;;5115917;27;20192;-45
2021/09/02 06:58:25;;;;;;;15.73;9.50;;;15.20;99.90;;;;;;5130302;27;20192;-45
2021/09/02 07:00:52;;;;;;;21.13;10.13;;;15.20;99.90;;;;;;5140029;27;20203;-45
2021/09/02 07:03:19;;;;;;;16.10;8.57;;;15.20;99.90;;;;;;5123377;27;20224;-48
2021/09/02 07:05:45;;;;;;;18.93;8.80;;;15.30;99.90;;;;;;5106126;27;20704;-46
2021/09/02 07:08:13;;;;;;;14.57;8.33;;;15.30;99.90;;;;;;5112683;27;20231;-44
2021/09/02 07:10:40;;;;;;;17.57;9.07;;;15.40;99.90;;;;;;5103886;27;20193;-46
2021/09/02 07:13:06;;;;;;;13.07;7.90;;;15.40;99.90;;;;;;5104276;27;21011;-44
2021/09/02 07:15:33;;;;;;;14.90;9.13;;;15.40;99.90;;;;;;5117081;27;20197;-45
2021/09/02 07:18:00;;;;;;;15.50;8.50;;;15.50;99.90;;;;;;5116842;27;20189;-46
2021/09/02 07:20:27;;;;;;;17.10;9.33;;;15.50;99.90;;;;;;5095339;27;20211;-45
2021/09/02 07:22:53;;;;;;;13.97;9.07;;;15.60;99.90;;;;;;5104826;27;20228;-46
2021/09/02 07:25:22;;;;;;;15.27;9.17;;;15.60;99.90;;;;;;5115661;27;20207;-45
2021/09/02 07:27:49;;;;;;;17.13;8.63;;;15.60;99.90;;;;;;5108787;27;20198;-50
2021/09/02 07:30:15;;;;;;;19.63;9.40;;;15.70;99.90;;;;;;5128717;27;20219;-47
2021/09/02 07:32:42;;;;;;;16.50;9.20;;;15.70;99.90;;;;;;5107093;27;20701;-45
2021/09/02 07:35:10;;;;;;;16.57;9.13;;;15.80;99.90;;;;;;5109036;27;20294;-45
2021/09/02 07:37:37;;;;;;;19.53;9.77;;;15.80;99.90;;;;;;5091768;27;20236;-46
2021/09/02 07:40:05;;;;;;;20.80;9.77;;;15.80;99.90;;;;;;5103579;27;20213;-45
2021/09/02 07:42:33;;;;;;;16.03;9.00;;;15.80;99.90;;;;;;5106723;27;20221;-45
2021/09/02 07:45:01;;;;;;;16.57;9.13;;;15.80;99.90;;;;;;5100996;27;20193;-45
2021/09/02 07:47:28;;;;;;;17.10;9.20;;;15.80;99.90;;;;;;5105650;28;20719;-45
2021/09/02 07:49:54;;;;;;;16.33;9.07;;;15.80;99.90;;;;;;5096157;27;20239;-47
2021/09/02 07:52:21;;;;;;;14.43;8.37;;;15.90;99.90;;;;;;5088089;27;20205;-45
2021/09/02 07:54:47;;;;;;;11.43;8.40;;;15.90;99.90;;;;;;5097933;28;20202;-50
2021/09/02 07:57:14;;;;;;;16.07;8.90;;;15.90;99.90;;;;;;5109756;27;20212;-47
2021/09/02 07:59:42;;;;;;;14.77;8.80;;;16.00;99.90;;;;;;5103466;27;20182;-45
2021/09/02 08:02:09;;;;;;;20.30;8.87;;;16.10;99.90;;;;;;5105307;28;20869;-45
2021/09/02 08:04:35;;;;;;;11.43;7.60;;;16.20;99.90;;;;;;5099419;28;20208;-44
2021/09/02 08:07:03;;;;;;;15.27;7.73;;;16.30;99.90;;;;;;5088263;27;20207;-48
2021/09/02 08:09:29;;;;;;;16.43;8.13;;;16.30;99.90;;;;;;5109873;27;20225;-44
2021/09/02 08:11:56;;;;;;;13.43;8.00;;;16.30;99.90;;;;;;5101240;27;20197;-47
2021/09/02 08:14:23;;;;;;;14.23;7.37;;;16.30;99.90;;;;;;5112778;28;20303;-45
2021/09/02 08:16:51;;;;;;;18.93;7.60;;;16.40;99.90;;;;;;5111397;27;20212;-45
2021/09/02 08:19:17;;;;;;;12.70;6.83;;;16.40;99.90;;;;;;5113458;27;20567;-45
2021/09/02 08:21:44;;;;;;;13.50;7.50;;;16.40;99.90;;;;;;5115029;27;20215;-44
2021/09/02 08:24:11;;;;;;;12.83;7.80;;;16.50;99.90;;;;;;5095658;27;20228;-44
2021/09/02 08:26:37;;;;;;;17.87;7.00;;;16.60;99.90;;;;;;5107942;27;20565;-46
2021/09/02 08:29:04;;;;;;;17.07;7.33;;;16.60;99.90;;;;;;5111461;27;20205;-44
2021/09/02 08:31:31;;;;;;;13.27;7.13;;;16.50;99.90;;;;;;5110156;27;20194;-48
2021/09/02 08:33:59;;;;;;;13.63;7.73;;;16.40;99.90;;;;;;5101813;27;20355;-47
2021/09/02 08:36:26;;;;;;;13.60;6.73;;;16.40;99.90;;;;;;5114432;27;20197;-45
2021/09/02 08:38:53;;;;;;;10.87;5.83;;;16.50;99.90;;;;;;5096603;27;20213;-47
2021/09/02 08:41:21;;;;;;;12.03;5.90;;;16.50;99.90;;;;;;5109979;27;20207;-46
2021/09/02 08:43:48;;;;;;;14.50;6.80;;;16.60;99.90;;;;;;5108368;27;20809;-45
2021/09/02 08:46:15;;;;;;;10.67;6.17;;;16.60;99.90;;;;;;5129535;27;20201;-45
2021/09/02 08:48:45;;;;;;;10.20;5.70;;;16.60;99.90;;;;;;5115066;27;20200;-43
2021/09/02 08:51:14;;;;;;;10.77;5.30;;;16.60;99.90;;;;;;5111358;27;20685;-48
2021/09/02 08:53:40;;;;;;;10.80;5.47;;;16.70;99.90;;;;;;5104159;27;20224;-47
2021/09/02 08:56:07;;;;;;;17.77;5.27;;;16.70;99.90;;;;;;5121035;27;20197;-48
2021/09/02 08:58:33;;;;;;;14.47;4.83;;;16.80;99.90;;;;;;5107707;27;20208;-46
2021/09/02 09:01:00;;;;;;;7.47;4.80;;;16.70;99.90;;;;;;5112011;27;20212;-44
2021/09/02 09:03:27;;;;;;;9.43;5.47;;;16.80;99.90;;;;;;5119351;27;20213;-45
2021/09/02 09:05:56;;;;;;;10.47;5.47;;;16.80;99.90;;;;;;5113370;27;20228;-45
2021/09/02 09:08:34;;;;;;;6.67;5.77;;;16.90;99.90;;;;;;5141498;27;20188;-44
2021/09/02 09:11:16;;;;;;;12.00;5.07;;;16.90;99.90;;;;;;5109686;27;20192;-47
2021/09/02 09:13:43;;;;;;;11.97;6.00;;;16.90;99.90;;;;;;5115577;27;20243;-45
2021/09/02 09:16:10;;;;;;;9.40;5.20;;;16.90;99.90;;;;;;5122934;27;20223;-44
2021/09/02 09:18:42;;;;;;;7.33;5.30;;;16.90;99.90;;;;;;5113248;27;20848;-44
2021/09/02 09:21:12;;;;;;;10.90;5.17;;;16.80;99.90;;;;;;5112639;27;20669;-45
2021/09/02 09:24:02;;;;;;;8.57;5.23;;;16.80;99.90;;;;;;5109053;27;20227;-44
2021/09/02 09:26:30;;;;;;;8.07;4.87;;;16.70;99.90;;;;;;5094816;27;20213;-46
2021/09/02 09:28:58;;;;;;;10.80;5.20;;;16.70;99.90;;;;;;5108754;27;20216;-46
2021/09/02 09:31:28;;;;;;;8.40;5.13;;;16.70;99.90;;;;;;5123143;27;20199;-44
2021/09/02 09:33:55;;;;;;;8.17;4.73;;;16.60;99.90;;;;;;5110046;27;20208;-48
2021/09/02 09:36:24;;;;;;;13.80;5.73;;;16.60;99.90;;;;;;5113865;27;20199;-44
2021/09/02 09:38:59;;;;;;;7.97;4.60;;;16.60;99.90;;;;;;5118579;27;20200;-45
2021/09/02 09:41:37;;;;;;;9.17;5.17;;;16.70;99.90;;;;;;5105504;27;20207;-48
2021/09/02 09:44:22;;;;;;;6.00;4.90;;;16.70;99.90;;;;;;5111062;27;20212;-46
2021/09/02 09:47:11;;;;;;;11.20;5.23;;;16.70;99.90;;;;;;5121230;27;20681;-44
2021/09/02 09:49:47;;;;;;;8.50;5.10;;;16.60;99.90;;;;;;5124565;27;20247;-45
2021/09/02 09:52:26;;;;;;;11.33;5.20;;;16.70;99.90;;;;;;5118301;27;20176;-48
2021/09/02 09:55:02;;;;;;;9.27;5.03;;;16.70;99.90;;;;;;5111477;27;20200;-45
2021/09/02 09:57:31;;;;;;;12.80;5.70;;;16.70;99.90;;;;;;5108768;27;20219;-46
2021/09/02 10:00:01;;;;;;;7.10;5.23;;;16.70;99.90;;;;;;5110251;27;20205;-45
2021/09/02 10:02:28;;;;;;;9.20;5.50;;;16.70;99.90;;;;;;5112306;27;20200;-46
2021/09/02 10:04:56;;;;;;;6.77;5.03;;;16.70;99.90;;;;;;5124314;27;20192;-47
2021/09/02 10:07:23;;;;;;;6.60;4.97;;;16.70;99.90;;;;;;5109692;27;20190;-44
2021/09/02 10:09:51;;;;;;;13.63;6.53;;;16.70;99.90;;;;;;5112865;27;20205;-44
2021/09/02 10:12:20;;;;;;;9.57;5.57;;;16.70;99.90;;;;;;5099680;27;20226;-45
2021/09/02 10:14:48;;;;;;;16.37;6.10;;;16.70;99.90;;;;;;5112834;27;20202;-46
2021/09/02 10:17:15;;;;;;;12.53;6.20;;;16.80;99.90;;;;;;5108389;27;21348;-45
2021/09/02 10:19:42;;;;;;;8.93;5.80;;;16.70;99.90;;;;;;5124076;27;20661;-45
2021/09/02 10:22:11;;;;;;;10.77;5.80;;;16.70;99.90;;;;;;5119113;27;20204;-45
2021/09/02 10:24:39;;;;;;;10.20;6.03;;;16.80;99.90;;;;;;5110496;27;20243;-46
2021/09/02 10:27:36;;;;;;;8.67;6.53;;;16.80;99.90;;;;;;5090070;27;20262;-45
2021/09/02 10:30:21;;;;;;;12.73;5.70;;;16.80;99.90;;;;;;5103985;27;20763;-45
2021/09/02 10:32:48;;;;;;;7.13;5.60;;;16.80;99.90;;;;;;5115629;27;20248;-45
2021/09/02 10:35:32;;;;;;;9.67;6.17;;;16.80;99.90;;;;;;5111151;27;20930;-46
2021/09/02 10:37:58;;;;;;;11.03;6.80;;;16.80;99.90;;;;;;5110998;27;20205;-45
2021/09/02 10:40:50;;;;;;;10.97;7.17;;;16.80;99.90;;;;;;5112561;27;20201;-47
2021/09/02 10:43:46;;;;;;;10.83;7.30;;;16.90;99.90;;;;;;5083278;27;20243;-46
2021/09/02 10:46:26;;;;;;;10.17;7.23;;;16.90;99.90;;;;;;5114503;27;20224;-45
2021/09/02 10:48:53;;;;;;;10.73;7.27;;;16.90;99.90;;;;;;5116087;27;20200;-46
2021/09/02 10:51:37;;;;;;;14.27;7.60;;;17.00;99.90;;;;;;5119473;27;20220;-44
2021/09/02 10:54:05;;;;;;;13.37;8.20;;;17.00;99.90;;;;;;5115605;27;20217;-45
2021/09/02 10:56:33;;;;;;;11.73;7.70;;;17.00;99.90;;;;;;5111611;27;20966;-45
2021/09/02 10:59:02;;;;;;;11.83;7.33;;;17.00;99.90;;;;;;5108295;27;20249;-47
2021/09/02 11:01:31;;;;;;;12.20;7.87;;;17.00;99.90;;;;;;5110322;27;20231;-47
2021/09/02 11:04:03;;;;;;;12.93;7.80;;;16.90;99.90;;;;;;5119238;27;20239;-46
2021/09/02 11:06:44;;;;;;;11.93;7.97;;;17.00;99.90;;;;;;5116151;27;20213;-46
2021/09/02 11:09:11;;;;;;;11.00;7.57;;;17.00;99.90;;;;;;5114814;27;20201;-46
2021/09/02 11:11:38;;;;;;;15.17;7.27;;;17.00;99.90;;;;;;5107784;27;20193;-49
2021/09/02 11:14:13;;;;;;;21.93;8.70;;;17.10;99.90;;;;;;5095628;27;20697;-45
2021/09/02 11:16:41;;;;;;;10.57;7.13;;;17.20;99.90;;;;;;5111621;27;20847;-47
2021/09/02 11:19:08;;;;;;;13.13;7.70;;;17.20;99.90;;;;;;5113661;27;20197;-49
2021/09/02 11:21:36;;;;;;;11.00;7.37;;;17.30;99.90;;;;;;5113722;27;20809;-49
2021/09/02 11:24:07;;;;;;;10.10;7.50;;;17.30;99.90;;;;;;5113810;27;20204;-45
2021/09/02 11:26:35;;;;;;;9.57;7.47;;;17.30;99.90;;;;;;5104497;27;20936;-45
2021/09/02 11:29:02;;;;;;;8.17;7.23;;;17.40;99.90;;;;;;5114961;27;20224;-45
2021/09/02 11:31:30;;;;;;;13.40;7.80;;;17.50;99.90;;;;;;5097659;27;20862;-46
2021/09/02 11:33:57;;;;;;;13.63;7.37;;;17.50;99.90;;;;;;5115899;27;20316;-45
2021/09/02 11:36:23;;;;;;;13.43;9.10;;;17.50;99.90;;;;;;5109406;27;20201;-45
2021/09/02 11:38:59;;;;;;;15.97;8.47;;;17.50;99.90;;;;;;5108834;27;20674;-45
2021/09/02 11:41:26;;;;;;;13.63;8.53;;;17.50;99.90;;;;;;5113681;27;20195;-44
2021/09/02 11:43:54;;;;;;;13.37;8.03;;;17.40;99.90;;;;;;5116167;27;20226;-44
2021/09/02 11:46:22;;;;;;;13.77;8.77;;;17.40;99.90;;;;;;5105592;27;20208;-48
2021/09/02 11:48:54;;;;;;;11.23;8.47;;;17.40;99.90;;;;;;5118956;27;20197;-45
2021/09/02 11:51:22;;;;;;;12.37;8.80;;;17.40;99.90;;;;;;5106970;27;20216;-47
2021/09/02 11:53:49;;;;;;;10.93;8.63;;;17.40;99.90;;;;;;5120581;27;20228;-45
2021/09/02 11:56:18;;;;;;;12.23;8.37;;;17.40;99.90;;;;;;5112728;27;20215;-48
2021/09/02 11:58:46;;;;;;;14.47;7.93;;;17.40;99.90;;;;;;5117812;28;20196;-45
2021/09/02 12:01:14;;;;;;;18.47;8.90;;;17.30;99.90;;;;;;5111844;27;20654;-48
2021/09/02 12:03:40;;;;;;;14.03;8.53;;;17.30;99.90;;;;;;5105990;27;20213;-45
2021/09/02 12:06:09;;;;;;;13.90;7.97;;;17.40;99.90;;;;;;5116043;27;20212;-46
2021/09/02 12:08:36;;;;;;;15.57;9.10;;;17.50;99.90;;;;;;5117376;27;20267;-51
2021/09/02 12:11:03;;;;;;;18.10;8.50;;;17.50;99.90;;;;;;5119624;27;20223;-45
2021/09/02 12:13:35;;;;;;;12.07;7.47;;;17.60;99.90;;;;;;5107148;27;20224;-44
2021/09/02 12:16:07;;;;;;;10.67;7.70;;;17.60;99.90;;;;;;5119454;27;20200;-46
2021/09/02 12:18:35;;;;;;;10.90;7.17;;;17.60;99.90;;;;;;5107744;27;20196;-46
2021/09/02 12:21:14;;;;;;;9.80;7.27;;;17.60;99.90;;;;;;5123100;27;20208;-43
2021/09/02 12:23:46;;;;;;;7.87;6.27;;;17.60;99.90;;;;;;5120423;27;20223;-44
2021/09/02 12:26:14;;;;;;;11.43;6.93;;;17.60;99.90;;;;;;5120217;27;20205;-44
2021/09/02 12:28:43;;;;;;;11.43;7.13;;;17.60;99.90;;;;;;5126690;27;20277;-44
2021/09/02 12:31:25;;;;;;;14.43;7.23;;;17.60;99.90;;;;;;5116413;27;20217;-44
2021/09/02 12:34:11;;;;;;;11.73;7.53;;;17.60;99.90;;;;;;5120829;27;20220;-46
2021/09/02 12:36:40;;;;;;;12.30;7.23;;;17.70;99.90;;;;;;5112529;27;20259;-47
2021/09/02 12:39:22;;;;;;;12.47;8.07;;;17.70;99.90;;;;;;5115248;27;20209;-47
2021/09/02 12:41:51;;;;;;;11.20;7.10;;;17.80;99.90;;;;;;5117904;27;20212;-44